Mazi Alex Otti Heliport

NG-0010 · Abia, Nigeria

Historia METAR NG-0010 · Mazi Alex Otti Heliport

Poniżej widzisz METAR-y z ostatnich kilku dni. Wybierz rok, aby przeglądać starsze METAR-y, począwszy od roku 2007.

24 czerwca 2024

Czas Kod Pogoda Temp. Widoczność Sufit Wiatr METAR/SPECI
10:00
M
27 °C 10 km+ 1.100 ft 190° 190° 3 kt METAR DNIM 240900Z 19003KT 9999 BKN011 27/25 Q1014 NOSIG
09:00
M
27 °C 7 km 1.000 ft 360° 360° 0 kt METAR DNIM 240800Z 00000KT 7000 BKN010 27/25 Q1014 NOSIG
07:00
M
25 °C 5 km 1.000 ft 360° 360° 0 kt METAR DNIM 240600Z 00000KT 5000 BR BKN010 25/24 Q1012 NOSIG
06:00
M
25 °C 8 km 1.000 ft 360° 360° 0 kt METAR DNIM 240500Z 00000KT 8000 BKN010 25/24 Q1012 NOSIG
05:00
M
25 °C 10 km+ 1.000 ft 360° 360° 0 kt METAR DNIM 240400Z 00000KT 9999 BKN010 25/24 Q1011 NOSIG
04:00
M
25 °C 10 km+ 1.000 ft 360° 360° 0 kt METAR DNIM 240300Z 00000KT 9999 BKN010 25/24 Q1011 NOSIG

23 czerwca 2024

Czas Kod Pogoda Temp. Widoczność Sufit Wiatr METAR/SPECI
22:00
M
27 °C 10 km+ 1.000 ft 360° 360° 0 kt METAR DNIM 232100Z 00000KT 9999 BKN010 27/25 Q1013 NOSIG
20:00
M
27 °C 10 km+ 1.100 ft 360° 360° 0 kt METAR DNIM 231900Z 00000KT 9999 BKN011 27/25 Q1011 NOSIG
18:00
M
28 °C 10 km+ 1.100 ft 360° 360° 0 kt METAR DNIM 231700Z 00000KT 9999 BKN011 28/25 Q1010 NOSIG
17:00
M
28 °C 10 km+ 1.100 ft 360° 360° 0 kt METAR DNIM 231600Z 00000KT 9999 BKN011 28/25 Q1010 NOSIG
16:00
M
27 °C 10 km+ 1.100 ft 290° 290° 5 kt METAR DNIM 231500Z 29005KT 9999 TS BKN011 FEW021CB 27/24 Q1011 NOSIG
15:00
I
28 °C 3 km 1.100 ft 320° 320° 12 kt METAR DNIM 231400Z 32012KT 3000 TSRA BKN011 FEW021CB 28/25 Q1011 NOSIG
14:00
M
32 °C 10 km+ 1.300 ft 190° 190° 6 kt METAR DNIM 231300Z 19006KT 9999 BKN013 32/25 Q1012 NOSIG
13:00
M
32 °C 10 km+ 1.200 ft 360° 360° 0 kt METAR DNIM 231200Z 00000KT 9999 BKN012 32/25 Q1013 NOSIG
12:00
M
31 °C 10 km+ 1.200 ft 360° 360° 0 kt METAR DNIM 231100Z 00000KT 9999 BKN012 31/25 Q1013 NOSIG
11:00
M
30 °C 10 km+ 1.200 ft 360° 360° 0 kt METAR DNIM 231000Z 00000KT 9999 BKN012 30/25 Q1014 NOSIG
07:00
I
25 °C 2 km 1.000 ft 360° 360° 0 kt METAR DNIM 230600Z 00000KT 2000 BR BKN010 25/24 Q1013 NOSIG
06:00
M
25 °C 6 km 1.000 ft 360° 360° 0 kt METAR DNIM 230500Z 00000KT 6000 BKN010 25/24 Q1013 NOSIG

22 czerwca 2024

Czas Kod Pogoda Temp. Widoczność Sufit Wiatr METAR/SPECI
22:00
M
26 °C 10 km+ 1.000 ft 270° 270° 5 kt METAR DNIM 222100Z 27005KT 9999 BKN010 26/25 Q1012 NOSIG
21:00
M
27 °C 10 km+ 1.100 ft 270° 270° 5 kt METAR DNIM 222000Z 27005KT 9999 BKN011 FEW020CB 27/24 Q1012 NOSIG
20:00
M
28 °C 10 km+ 1.100 ft 360° 360° 0 kt METAR DNIM 221900Z 00000KT 9999 BKN011 28/25 Q1012 NOOSIG
19:00
M
29 °C 10 km+ 1.100 ft 210° 210° 5 kt METAR DNIM 221800Z 21005KT 9999 BKN011 FEW019CB 29/25 Q1011
17:00
V
31 °C 10 km+ - 210° 210° 8 kt METAR DNIM 221600Z 21008KT 9999 BKN0012 FEW019CB 31/25 Q1011
16:00
M
32 °C 10 km+ 1.200 ft 240° 240° 12 kt METAR DNIM 221500Z 24012KT 9999 BKN012 FEW019CB 32/25 Q1011
15:00
M
31 °C 10 km+ 1.200 ft 360° 360° 0 kt METAR DNIM 221400Z 00000KT 9999 BKN012 FEW020CB 31/25 Q1012
14:00
M
31 °C 10 km+ 1.200 ft 240° 240° 5 kt METAR DNIM 221300Z 24005KT 9999 BKN012 FEW019CB 31/25 Q1012
13:00
M
30 °C 10 km+ 1.200 ft 180° 180° 10 kt METAR DNIM 221200Z 18010KT 9999 BKN012 FEW019CB 30/25 Q1013
12:00
M
30 °C 10 km+ 1.200 ft 180° 180° 6 kt METAR DNIM 221100Z 18006KT 9999 BKN012 30/24 Q1014
11:00
M
29 °C 10 km+ 1.100 ft 240° 240° 6 kt METAR DNIM 221000Z 24006KT 9999 BKN011 29/25 Q1015
10:00
M
28 °C 10 km+ 1.100 ft 360° 360° 0 kt METAR DNIM 220900Z 00000KT 9999 BKN011 28/25 Q1015
09:00
V
27 °C 10 km+ - 360° 360° 0 kt METAR DNIM 220800Z 00000KT 9999 SCT010 27/25 Q1014
08:00
I
25 °C 8 km 800 ft 360° 360° 0 kt METAR DNIM 220700Z 00000KT 8000 BKN008 25/24 Q1014
07:00
M
23 °C 5 km - 360° 360° 0 kt METAR DNIM 220600Z 00000KT 5000 BR SCT009 23/22 Q1014 NOSIG
Zgłoś zmianę